createdAt,value
2023-03-24T00:00:33.469Z,50.01
2023-03-24T00:03:03.858Z,50.13
2023-03-24T00:05:55.191Z,49.68
2023-03-24T00:08:25.378Z,49.56
2023-03-24T00:11:00.022Z,49.45
2023-03-24T00:13:34.225Z,49.55
2023-03-24T00:16:45.281Z,50.16
2023-03-24T00:19:35.018Z,49.80
2023-03-24T00:22:15.460Z,49.69
2023-03-24T00:25:05.137Z,49.73
2023-03-24T00:27:38.623Z,49.38
2023-03-24T00:30:59.408Z,49.91
2023-03-24T00:36:49.235Z,49.53
2023-03-24T00:39:21.519Z,49.02
2023-03-24T00:41:50.919Z,48.86
2023-03-24T00:44:19.699Z,48.78
2023-03-24T00:47:10.305Z,48.71
2023-03-24T00:49:46.155Z,48.59
2023-03-24T00:52:21.556Z,48.59
2023-03-24T00:55:00.392Z,49.06
2023-03-24T00:57:45.078Z,49.25
2023-03-24T01:00:21.199Z,48.63
2023-03-24T01:02:57.658Z,48.91
2023-03-24T01:05:33.321Z,48.60
2023-03-24T01:08:31.408Z,48.63
2023-03-24T01:11:03.112Z,48.38
2023-03-24T01:13:33.441Z,48.24
2023-03-24T01:16:05.043Z,48.00
2023-03-24T01:19:10.717Z,48.13
2023-03-24T01:21:51.516Z,48.73
2023-03-24T01:24:31.639Z,48.62
2023-03-24T01:30:23.551Z,48.93
2023-03-24T01:32:57.371Z,48.39
2023-03-24T01:35:29.637Z,48.29
2023-03-24T01:38:04.096Z,48.48
2023-03-24T01:40:56.149Z,48.17
2023-03-24T01:43:35.261Z,48.65
2023-03-24T01:46:11.893Z,48.80
2023-03-24T01:48:57.324Z,48.63
2023-03-24T01:51:53.247Z,48.30
2023-03-24T01:54:54.918Z,48.81
2023-03-24T01:57:32.396Z,48.38
2023-03-24T02:00:08.175Z,47.94
2023-03-24T02:03:07.376Z,48.20
2023-03-24T02:05:47.840Z,48.26
2023-03-24T02:08:43.005Z,49.39
2023-03-24T02:11:14.900Z,49.40
2023-03-24T02:13:51.546Z,48.77
2023-03-24T02:16:31.998Z,48.92
2023-03-24T02:19:38.736Z,49.04
2023-03-24T02:22:33.358Z,49.16
2023-03-24T02:25:22.795Z,49.09
2023-03-24T02:28:21.438Z,49.07
2023-03-24T02:31:09.988Z,49.29
2023-03-24T02:34:26.095Z,48.96
2023-03-24T02:37:15.422Z,49.14
2023-03-24T02:39:51.717Z,48.71
2023-03-24T02:42:21.368Z,48.93
2023-03-24T02:45:17.668Z,48.54
2023-03-24T02:47:59.905Z,48.53
2023-03-24T02:50:31.207Z,48.08
2023-03-24T02:53:11.177Z,48.06
2023-03-24T02:56:28.138Z,48.40
2023-03-24T02:59:10.896Z,48.17
2023-03-24T03:02:05.542Z,48.22
2023-03-24T03:04:59.619Z,48.27
2023-03-24T03:07:38.573Z,48.49
2023-03-24T03:10:20.346Z,48.60
2023-03-24T03:12:55.148Z,49.07
2023-03-24T03:15:33.352Z,49.20
2023-03-24T03:18:12.432Z,48.66
2023-03-24T03:20:51.519Z,48.80
2023-03-24T03:23:32.264Z,48.42
2023-03-24T03:26:05.225Z,48.72
2023-03-24T03:28:38.932Z,47.67
2023-03-24T03:31:18.719Z,47.77
2023-03-24T03:33:55.450Z,47.43
2023-03-24T03:36:31.254Z,47.69
2023-03-24T03:39:31.508Z,48.24
2023-03-24T03:42:05.561Z,47.78
2023-03-24T03:44:35.364Z,47.61
2023-03-24T03:47:05.302Z,48.33
2023-03-24T03:49:42.420Z,48.47
2023-03-24T03:52:11.877Z,47.77
2023-03-24T03:54:44.562Z,47.18
2023-03-24T03:57:17.531Z,46.89
2023-03-24T04:00:17.936Z,46.94
2023-03-24T04:03:20.085Z,47.10
2023-03-24T04:06:05.311Z,47.42
2023-03-24T04:09:07.212Z,47.81
2023-03-24T04:12:05.655Z,48.13
2023-03-24T04:15:03.361Z,48.52
2023-03-24T04:18:14.964Z,48.86
2023-03-24T04:21:30.964Z,48.31
2023-03-24T04:24:16.846Z,47.67
2023-03-24T04:26:55.709Z,47.23
2023-03-24T04:29:54.924Z,47.24
2023-03-24T04:32:48.054Z,47.21
2023-03-24T04:35:41.544Z,48.04
2023-03-24T04:38:29.855Z,47.85
2023-03-24T04:41:33.769Z,48.47
2023-03-24T04:44:15.075Z,47.59
2023-03-24T04:47:03.250Z,47.75
2023-03-24T04:49:33.615Z,47.33
2023-03-24T04:52:03.720Z,47.21
2023-03-24T04:54:35.652Z,46.97
2023-03-24T04:57:08.165Z,47.49
2023-03-24T04:59:45.764Z,47.15
2023-03-24T05:02:15.596Z,47.30
2023-03-24T05:04:48.037Z,47.54
2023-03-24T05:07:37.507Z,47.28
2023-03-24T05:10:13.189Z,47.28
2023-03-24T05:12:47.281Z,47.37
2023-03-24T05:15:19.831Z,47.24
2023-03-24T05:17:55.175Z,47.19
2023-03-24T05:20:29.406Z,47.16
2023-03-24T05:23:10.082Z,47.03
2023-03-24T05:25:41.478Z,47.13
2023-03-24T05:28:10.920Z,47.83
2023-03-24T05:30:40.534Z,48.00
2023-03-24T05:33:30.144Z,47.38
2023-03-24T05:36:11.622Z,47.40
2023-03-24T05:38:56.090Z,47.43
2023-03-24T05:43:03.946Z,47.74
2023-03-24T05:46:08.215Z,47.77
2023-03-24T05:48:53.215Z,47.95
2023-03-24T05:51:26.478Z,47.21
2023-03-24T05:54:24.359Z,47.22
2023-03-24T05:57:26.463Z,47.39
2023-03-24T06:00:38.880Z,47.52
2023-03-24T06:03:22.747Z,47.27
2023-03-24T06:06:09.665Z,47.25
2023-03-24T06:08:47.176Z,47.24
2023-03-24T06:11:35.438Z,47.46
2023-03-24T06:14:47.547Z,47.60
2023-03-24T06:17:21.420Z,47.25
2023-03-24T06:20:03.638Z,47.77
2023-03-24T06:23:10.064Z,47.84
2023-03-24T06:26:13.740Z,47.32
2023-03-24T06:28:56.644Z,47.00
2023-03-24T06:31:42.779Z,46.80
2023-03-24T06:34:15.818Z,46.83
2023-03-24T06:37:07.318Z,47.12
2023-03-24T06:39:39.673Z,47.05
2023-03-24T06:42:18.734Z,47.22
2023-03-24T06:44:48.362Z,47.35
2023-03-24T06:47:21.889Z,46.88
2023-03-24T06:49:55.157Z,46.77
2023-03-24T06:52:36.834Z,46.95
2023-03-24T06:55:10.029Z,47.26
2023-03-24T06:57:43.980Z,47.38
2023-03-24T07:00:38.873Z,48.09
2023-03-24T07:03:38.069Z,48.03
2023-03-24T07:06:21.986Z,47.36
2023-03-24T07:09:06.580Z,47.70
2023-03-24T07:11:42.656Z,47.54
2023-03-24T07:14:14.113Z,46.89
2023-03-24T07:16:51.975Z,47.02
2023-03-24T07:19:47.768Z,46.99
2023-03-24T07:23:03.131Z,47.11
2023-03-24T07:26:03.939Z,47.36
2023-03-24T07:28:54.356Z,47.05
2023-03-24T07:31:57.381Z,46.98
2023-03-24T07:34:38.087Z,46.43
2023-03-24T07:37:08.972Z,46.17
2023-03-24T07:39:39.601Z,46.49
2023-03-24T07:42:12.901Z,46.13
2023-03-24T07:45:16.484Z,46.51
2023-03-24T07:47:51.632Z,46.17
2023-03-24T07:50:23.822Z,46.25
2023-03-24T07:52:57.484Z,45.87
2023-03-24T07:55:40.010Z,46.00
2023-03-24T07:58:19.338Z,46.19
2023-03-24T08:01:15.467Z,45.90
2023-03-24T08:03:55.551Z,47.51
2023-03-24T08:06:51.340Z,46.75
2023-03-24T08:09:28.628Z,46.55
2023-03-24T08:12:20.122Z,46.85
2023-03-24T08:14:58.257Z,47.10
2023-03-24T08:17:34.503Z,46.60
2023-03-24T08:20:15.715Z,46.27
2023-03-24T08:22:55.534Z,46.29
2023-03-24T08:25:35.235Z,46.38
2023-03-24T08:28:10.796Z,48.15
2023-03-24T08:30:44.598Z,46.73
2023-03-24T08:33:19.029Z,46.22
2023-03-24T08:35:54.406Z,46.55
2023-03-24T08:38:38.036Z,46.14
2023-03-24T08:41:10.572Z,46.04
2023-03-24T08:43:47.165Z,45.97
2023-03-24T08:46:20.213Z,45.75
2023-03-24T08:48:51.961Z,46.19
2023-03-24T08:51:23.148Z,46.10
2023-03-24T08:53:53.845Z,46.25
2023-03-24T08:56:23.495Z,46.16
2023-03-24T08:58:55.404Z,45.80
2023-03-24T09:01:28.122Z,46.74
2023-03-24T09:04:10.677Z,46.38
2023-03-24T09:06:42.915Z,45.99
2023-03-24T09:09:12.391Z,46.14
2023-03-24T09:11:46.330Z,45.19
2023-03-24T09:14:16.528Z,44.98
2023-03-24T09:16:50.698Z,45.00
2023-03-24T09:19:22.639Z,45.41
2023-03-24T09:22:10.613Z,45.61
2023-03-24T09:24:42.059Z,45.59
2023-03-24T09:27:12.180Z,45.30
2023-03-24T09:29:51.204Z,45.17
2023-03-24T09:32:21.678Z,45.05
2023-03-24T09:34:54.931Z,45.92
2023-03-24T09:37:25.922Z,46.04
2023-03-24T09:39:57.862Z,45.99
2023-03-24T09:42:45.668Z,45.83
2023-03-24T09:45:23.501Z,45.53
2023-03-24T09:48:02.421Z,45.38
2023-03-24T09:50:56.096Z,45.36
2023-03-24T09:53:55.924Z,46.10
2023-03-24T09:56:35.188Z,45.27
2023-03-24T09:59:24.521Z,45.79
2023-03-24T10:02:06.240Z,45.13
2023-03-24T10:04:38.273Z,45.08
2023-03-24T10:07:49.071Z,45.72
2023-03-24T10:10:51.577Z,45.61
2023-03-24T10:14:20.287Z,45.47
2023-03-24T10:16:53.025Z,45.19
2023-03-24T10:19:59.744Z,44.94
2023-03-24T10:23:09.360Z,44.84
2023-03-24T10:26:08.409Z,44.79
2023-03-24T10:29:05.434Z,45.36
2023-03-24T10:31:54.146Z,45.21
2023-03-24T10:34:34.723Z,45.26
2023-03-24T10:37:06.130Z,44.29
2023-03-24T10:44:51.199Z,46.13
2023-03-24T10:47:32.932Z,45.52
2023-03-24T10:50:12.273Z,45.16
2023-03-24T10:52:48.536Z,45.01
2023-03-24T10:55:23.933Z,45.06
2023-03-24T10:58:02.425Z,45.04
2023-03-24T11:00:41.667Z,44.88
2023-03-24T11:03:28.485Z,44.01
2023-03-24T11:06:10.042Z,43.50
2023-03-24T11:08:44.375Z,44.35
2023-03-24T11:11:17.935Z,44.55
2023-03-24T11:14:02.229Z,44.72
2023-03-24T11:16:45.142Z,44.11
2023-03-24T11:19:26.876Z,44.74
2023-03-24T11:22:04.402Z,44.24
2023-03-24T11:24:39.690Z,43.88
2023-03-24T11:27:18.832Z,45.53
2023-03-24T11:29:57.772Z,44.96
2023-03-24T11:32:34.798Z,44.47
2023-03-24T11:35:07.990Z,45.89
2023-03-24T11:37:43.226Z,45.02
2023-03-24T11:40:28.138Z,44.49
2023-03-24T11:43:06.805Z,45.16
2023-03-24T11:46:02.342Z,44.61
2023-03-24T11:49:01.549Z,44.91
2023-03-24T11:51:43.433Z,44.87
2023-03-24T11:54:19.193Z,44.64
2023-03-24T11:57:14.423Z,44.21
2023-03-24T12:00:05.847Z,44.07
2023-03-24T12:03:20.548Z,44.99
2023-03-24T12:06:18.239Z,44.12
2023-03-24T12:08:56.173Z,43.11
2023-03-24T12:11:46.704Z,42.98
2023-03-24T12:14:29.315Z,42.66
2023-03-24T12:17:19.472Z,42.98
2023-03-24T12:20:00.516Z,42.77
2023-03-24T12:22:57.666Z,42.31
2023-03-24T12:25:44.061Z,42.38
2023-03-24T12:28:20.428Z,42.02
2023-03-24T12:31:10.262Z,41.93
2023-03-24T12:34:15.086Z,42.04
2023-03-24T12:36:51.050Z,41.97
2023-03-24T12:39:37.641Z,42.02
2023-03-24T12:42:14.308Z,41.74
2023-03-24T12:45:03.582Z,41.51
2023-03-24T12:47:47.881Z,41.18
2023-03-24T12:50:51.371Z,41.15
2023-03-24T12:53:39.375Z,41.17
2023-03-24T12:56:27.718Z,40.85
2023-03-24T12:59:11.660Z,40.95
2023-03-24T13:01:56.604Z,41.07
2023-03-24T13:04:36.108Z,42.30
2023-03-24T13:07:14.379Z,41.41
2023-03-24T13:10:03.261Z,41.20
2023-03-24T13:12:55.983Z,41.36
2023-03-24T13:15:51.374Z,41.19
2023-03-24T13:18:29.294Z,41.42
2023-03-24T13:21:11.157Z,40.64
2023-03-24T13:23:55.755Z,40.72
2023-03-24T13:26:43.375Z,40.72
2023-03-24T13:29:45.757Z,41.00
2023-03-24T13:32:20.681Z,41.35
2023-03-24T13:35:34.898Z,41.62
2023-03-24T13:38:23.363Z,41.25
2023-03-24T13:40:56.260Z,40.66
2023-03-24T13:43:36.611Z,40.56
2023-03-24T13:46:15.582Z,40.44
2023-03-24T13:48:56.054Z,40.55
2023-03-24T13:51:42.715Z,40.60
2023-03-24T13:54:16.274Z,40.33
2023-03-24T13:56:50.006Z,41.74
2023-03-24T13:59:26.595Z,40.80
2023-03-24T14:02:20.042Z,40.56
2023-03-24T14:05:03.938Z,42.28
2023-03-24T14:08:11.316Z,41.20
2023-03-24T14:10:47.100Z,40.85
2023-03-24T14:13:18.086Z,40.70
2023-03-24T14:16:03.771Z,40.72
2023-03-24T14:18:40.007Z,40.53
2023-03-24T14:21:12.653Z,40.75
2023-03-24T14:23:54.275Z,40.58
2023-03-24T14:26:24.027Z,40.62
2023-03-24T14:28:57.930Z,40.50
2023-03-24T14:31:37.901Z,40.75
2023-03-24T14:34:22.892Z,40.64
2023-03-24T14:37:09.584Z,40.79
2023-03-24T14:39:50.483Z,40.77
2023-03-24T14:42:37.899Z,41.11
2023-03-24T14:45:54.167Z,41.70
2023-03-24T14:49:07.625Z,40.92
2023-03-24T14:52:12.163Z,40.45
2023-03-24T14:54:55.771Z,39.96
2023-03-24T14:57:39.914Z,39.67
2023-03-24T15:00:54.666Z,39.94
2023-03-24T15:04:01.682Z,40.23
2023-03-24T15:06:34.591Z,40.23
2023-03-24T15:09:12.143Z,39.96
2023-03-24T15:11:46.622Z,39.61
2023-03-24T15:14:34.983Z,39.69
2023-03-24T15:17:23.896Z,40.64
2023-03-24T15:19:58.248Z,41.14
2023-03-24T15:22:31.821Z,39.92
2023-03-24T15:25:03.865Z,40.36
2023-03-24T15:27:35.473Z,40.37
2023-03-24T15:30:06.359Z,40.08
2023-03-24T15:32:39.588Z,39.56
2023-03-24T15:35:16.672Z,39.52
2023-03-24T15:38:25.646Z,39.85
2023-03-24T15:41:16.153Z,40.18
2023-03-24T15:43:55.702Z,39.87
2023-03-24T15:46:34.179Z,40.45
2023-03-24T15:49:06.508Z,41.23
2023-03-24T15:52:02.919Z,40.54
2023-03-24T15:54:47.268Z,41.27
2023-03-24T15:57:24.770Z,40.11
2023-03-24T16:00:18.718Z,40.43
2023-03-24T16:02:55.747Z,39.65
2023-03-24T16:05:36.368Z,39.90
2023-03-24T16:08:27.574Z,39.71
2023-03-24T16:11:08.057Z,39.44
2023-03-24T16:13:39.985Z,39.72
2023-03-24T16:16:39.004Z,39.68
2023-03-24T16:19:14.344Z,39.47
2023-03-24T16:21:44.580Z,39.27
2023-03-24T16:24:18.118Z,39.15
2023-03-24T16:26:47.827Z,40.81
2023-03-24T16:29:24.317Z,41.03
2023-03-24T16:32:00.145Z,39.63
2023-03-24T16:34:34.215Z,39.42
2023-03-24T16:37:06.337Z,39.25
2023-03-24T16:39:40.555Z,40.34
2023-03-24T16:42:14.083Z,39.63
2023-03-24T16:44:47.122Z,39.48
2023-03-24T16:47:20.749Z,39.56
2023-03-24T16:49:52.141Z,39.56
2023-03-24T16:52:22.885Z,39.47
2023-03-24T16:54:53.186Z,39.50
2023-03-24T16:57:23.566Z,40.41
2023-03-24T16:59:54.123Z,40.55
2023-03-24T17:02:24.528Z,40.60
2023-03-24T17:04:55.716Z,40.60
2023-03-24T17:07:27.758Z,39.85
2023-03-24T17:10:04.734Z,40.31
2023-03-24T17:12:41.812Z,39.91
2023-03-24T17:15:35.496Z,39.64
2023-03-24T17:18:10.436Z,39.44
2023-03-24T17:20:45.978Z,39.44
2023-03-24T17:23:19.499Z,39.44
2023-03-24T17:25:48.686Z,39.30
2023-03-24T17:28:20.060Z,39.93
2023-03-24T17:30:51.517Z,40.13
2023-03-24T17:33:22.648Z,39.79
2023-03-24T17:35:54.001Z,40.91
2023-03-24T17:38:24.146Z,40.52
2023-03-24T17:41:07.612Z,40.48
2023-03-24T17:43:39.465Z,40.24
2023-03-24T17:46:12.742Z,40.10
2023-03-24T17:48:49.216Z,40.28
2023-03-24T17:51:19.537Z,39.59
2023-03-24T17:53:48.665Z,40.11
2023-03-24T17:56:22.248Z,39.30
2023-03-24T17:58:56.229Z,39.17
2023-03-24T18:01:32.309Z,39.28
2023-03-24T18:04:05.324Z,41.03
2023-03-24T18:06:36.667Z,40.95
2023-03-24T18:09:10.184Z,40.11
2023-03-24T18:11:42.680Z,40.73
2023-03-24T18:14:12.340Z,40.34
2023-03-24T18:16:46.232Z,40.46
2023-03-24T18:19:18.278Z,40.27
2023-03-24T18:21:48.247Z,40.76
2023-03-24T18:24:19.481Z,40.09
2023-03-24T18:26:50.359Z,40.21
2023-03-24T18:29:23.456Z,40.13
2023-03-24T18:31:52.427Z,40.10
2023-03-24T18:34:24.195Z,40.17
2023-03-24T18:36:55.043Z,40.06
2023-03-24T18:39:25.529Z,38.90
2023-03-24T18:41:56.595Z,39.07
2023-03-24T18:44:36.569Z,38.91
2023-03-24T18:47:08.744Z,38.70
2023-03-24T18:49:41.726Z,39.19
2023-03-24T18:52:15.520Z,38.63
2023-03-24T18:54:51.077Z,39.09
2023-03-24T18:57:23.383Z,40.90
2023-03-24T18:59:54.994Z,41.20
2023-03-24T19:02:24.991Z,40.36
2023-03-24T19:04:55.532Z,39.99
2023-03-24T19:07:27.306Z,40.00
2023-03-24T19:10:01.956Z,39.85
2023-03-24T19:12:34.134Z,40.00
2023-03-24T19:15:07.263Z,39.83
2023-03-24T19:17:37.868Z,40.20
2023-03-24T19:20:11.814Z,39.68
2023-03-24T19:22:44.741Z,39.51
2023-03-24T19:25:16.230Z,39.31
2023-03-24T19:27:47.865Z,39.34
2023-03-24T19:30:23.230Z,39.30
2023-03-24T19:32:52.304Z,39.24
2023-03-24T19:35:24.622Z,39.18
2023-03-24T19:37:55.599Z,39.21
2023-03-24T19:40:32.116Z,39.44
2023-03-24T19:43:03.625Z,39.56
2023-03-24T19:45:45.873Z,39.59
2023-03-24T19:48:15.562Z,39.58
2023-03-24T19:50:47.506Z,39.56
2023-03-24T19:53:16.815Z,39.10
2023-03-24T19:55:47.993Z,38.88
2023-03-24T19:58:20.016Z,39.58
2023-03-24T20:00:54.107Z,39.64
2023-03-24T20:03:24.635Z,39.64
2023-03-24T20:05:55.465Z,39.21
2023-03-24T20:08:30.945Z,39.25
2023-03-24T20:11:04.115Z,38.98
2023-03-24T20:13:34.753Z,38.98
2023-03-24T20:16:06.506Z,39.43
2023-03-24T20:18:38.119Z,39.15
2023-03-24T20:21:11.318Z,39.48
2023-03-24T20:23:43.034Z,39.26
2023-03-24T20:26:13.398Z,39.17
2023-03-24T20:28:44.480Z,39.45
2023-03-24T20:31:18.241Z,39.66
2023-03-24T20:33:50.600Z,39.84
2023-03-24T20:36:20.831Z,39.87
2023-03-24T20:38:55.005Z,39.93
2023-03-24T20:41:28.484Z,39.55
2023-03-24T20:44:06.141Z,39.44
2023-03-24T20:46:36.605Z,39.34
2023-03-24T20:49:09.324Z,39.42
2023-03-24T20:51:42.287Z,39.33
2023-03-24T20:54:11.951Z,39.71
2023-03-24T20:56:43.466Z,39.69
2023-03-24T20:59:16.796Z,39.60
2023-03-24T21:01:50.721Z,40.12
2023-03-24T21:04:24.093Z,40.48
2023-03-24T21:06:55.417Z,40.67
2023-03-24T21:09:26.114Z,39.84
2023-03-24T21:11:56.955Z,38.95
2023-03-24T21:14:36.415Z,38.85
2023-03-24T21:17:07.980Z,38.84
2023-03-24T21:19:39.380Z,38.83
2023-03-24T21:22:17.113Z,38.91
2023-03-24T21:24:50.522Z,38.93
2023-03-24T21:27:22.898Z,39.47
2023-03-24T21:29:52.808Z,39.07
2023-03-24T21:32:24.827Z,39.42
2023-03-24T21:34:56.233Z,39.03
2023-03-24T21:37:36.841Z,39.11
2023-03-24T21:40:16.098Z,39.09
2023-03-24T21:42:54.469Z,39.52
2023-03-24T21:45:27.009Z,39.66
2023-03-24T21:48:01.574Z,39.52
2023-03-24T21:50:39.895Z,39.31
2023-03-24T21:53:18.097Z,39.12
2023-03-24T21:55:56.386Z,39.20
2023-03-24T21:58:35.569Z,39.16
2023-03-24T22:01:06.487Z,39.00
2023-03-24T22:03:39.038Z,39.07
2023-03-24T22:06:12.366Z,39.52
2023-03-24T22:08:46.405Z,39.60
2023-03-24T22:11:19.839Z,39.53
2023-03-24T22:13:51.854Z,39.31
2023-03-24T22:16:23.658Z,39.13
2023-03-24T22:18:54.383Z,38.62
2023-03-24T22:21:24.302Z,38.51
2023-03-24T22:23:55.994Z,38.51
2023-03-24T22:26:33.857Z,39.17
2023-03-24T22:29:10.283Z,38.91
2023-03-24T22:31:45.940Z,38.54
2023-03-24T22:34:16.824Z,38.53
2023-03-24T22:36:48.220Z,38.67
2023-03-24T22:39:18.585Z,38.51
2023-03-24T22:41:50.816Z,38.33
2023-03-24T22:44:22.722Z,38.26
2023-03-24T22:46:52.368Z,38.45
2023-03-24T22:49:22.364Z,38.84
2023-03-24T22:51:51.685Z,38.18
2023-03-24T22:58:50.793Z,38.64
2023-03-24T23:01:22.956Z,38.32
2023-03-24T23:03:52.780Z,38.91
2023-03-24T23:06:33.040Z,38.66
2023-03-24T23:09:08.561Z,39.16
2023-03-24T23:16:14.232Z,39.92
2023-03-24T23:18:46.885Z,39.66
2023-03-24T23:29:34.727Z,38.84
2023-03-24T23:33:47.899Z,39.55
2023-03-24T23:36:24.866Z,39.71
2023-03-24T23:39:08.110Z,38.84
2023-03-24T23:41:47.671Z,38.61
2023-03-24T23:44:20.313Z,38.37
2023-03-24T23:46:52.735Z,38.75
2023-03-24T23:49:26.715Z,39.24
2023-03-24T23:51:56.825Z,38.85
2023-03-24T23:54:35.854Z,38.43
2023-03-24T23:57:07.344Z,38.07
2023-03-24T23:59:39.325Z,37.99
